createdAt,value
2023-01-07T00:00:01.137Z,1018.86
2023-01-07T00:01:02.150Z,1018.9
2023-01-07T00:02:01.160Z,1018.9
2023-01-07T00:03:01.225Z,1018.86
2023-01-07T00:04:01.191Z,1018.86
2023-01-07T00:05:01.292Z,1018.84
2023-01-07T00:06:01.066Z,1018.83
2023-01-07T00:07:01.073Z,1018.84
2023-01-07T00:08:01.112Z,1018.82
2023-01-07T00:09:01.120Z,1018.83
2023-01-07T00:10:01.068Z,1018.78
2023-01-07T00:11:01.069Z,1018.84
2023-01-07T00:12:01.093Z,1018.8
2023-01-07T00:13:01.062Z,1018.86
2023-01-07T00:14:01.253Z,1018.86
2023-01-07T00:15:00.709Z,1018.83
2023-01-07T00:16:00.553Z,1018.83
2023-01-07T00:17:00.328Z,1018.79
2023-01-07T00:18:00.015Z,1018.84
2023-01-07T00:18:59.727Z,1018.8
2023-01-07T00:20:01.495Z,1018.7
2023-01-07T00:21:01.717Z,1018.72
2023-01-07T00:22:01.944Z,1018.74
2023-01-07T00:23:02.407Z,1018.71
2023-01-07T00:24:01.130Z,1018.68
2023-01-07T00:25:01.109Z,1018.66
2023-01-07T00:26:01.882Z,1018.66
2023-01-07T00:27:01.784Z,1018.71
2023-01-07T00:28:01.114Z,1018.67
2023-01-07T00:29:01.150Z,1018.64
2023-01-07T00:30:01.202Z,1018.66
2023-01-07T00:31:02.071Z,1018.71
2023-01-07T00:32:01.157Z,1018.73
2023-01-07T00:33:01.168Z,1018.7
2023-01-07T00:34:01.146Z,1018.74
2023-01-07T00:35:01.057Z,1018.72
2023-01-07T00:36:01.184Z,1018.71
2023-01-07T00:37:01.071Z,1018.76
2023-01-07T00:38:01.091Z,1018.73
2023-01-07T00:39:01.088Z,1018.76
2023-01-07T00:40:01.197Z,1018.73
2023-01-07T00:41:01.223Z,1018.77
2023-01-07T00:42:02.279Z,1018.72
2023-01-07T00:43:01.122Z,1018.73
2023-01-07T00:44:01.102Z,1018.77
2023-01-07T00:45:01.113Z,1018.74
2023-01-07T00:46:01.140Z,1018.72
2023-01-07T00:47:01.136Z,1018.74
2023-01-07T00:48:01.538Z,1018.71
2023-01-07T00:49:01.256Z,1018.75
2023-01-07T00:50:01.341Z,1018.74
2023-01-07T00:51:01.172Z,1018.75
2023-01-07T00:52:01.170Z,1018.73
2023-01-07T00:53:01.201Z,1018.72
2023-01-07T00:54:01.735Z,1018.73
2023-01-07T00:55:01.119Z,1018.72
2023-01-07T00:56:01.101Z,1018.74
2023-01-07T00:57:01.296Z,1018.75
2023-01-07T00:58:01.513Z,1018.76
2023-01-07T00:59:02.212Z,1018.75
2023-01-07T01:00:01.179Z,1018.76
2023-01-07T01:01:03.521Z,1018.74
2023-01-07T01:02:00.819Z,1018.75
2023-01-07T01:03:00.623Z,1018.77
2023-01-07T01:04:00.295Z,1018.76
2023-01-07T01:05:00.004Z,1018.76
2023-01-07T01:06:05.091Z,1018.76
2023-01-07T01:07:01.989Z,1018.75
2023-01-07T01:08:01.544Z,1018.76
2023-01-07T01:09:01.625Z,1018.73
2023-01-07T01:10:01.280Z,1018.7
2023-01-07T01:11:07.898Z,1018.71
2023-01-07T01:12:01.117Z,1018.74
2023-01-07T01:13:01.094Z,1018.8
2023-01-07T01:14:01.100Z,1018.77
2023-01-07T01:15:01.098Z,1018.75
2023-01-07T01:16:10.279Z,1018.78
2023-01-07T01:17:01.373Z,1018.78
2023-01-07T01:18:01.112Z,1018.77
2023-01-07T01:19:01.116Z,1018.77
2023-01-07T01:20:01.306Z,1018.74
2023-01-07T01:21:13.814Z,1018.74
2023-01-07T01:22:01.149Z,1018.72
2023-01-07T01:23:01.176Z,1018.75
2023-01-07T01:24:01.062Z,1018.76
2023-01-07T01:25:01.170Z,1018.81
2023-01-07T01:26:16.024Z,1018.8
2023-01-07T01:27:02.155Z,1018.84
2023-01-07T01:28:01.231Z,1018.76
2023-01-07T01:29:01.785Z,1018.79
2023-01-07T01:30:01.781Z,1018.75
2023-01-07T01:31:01.594Z,1018.81
2023-01-07T01:32:01.154Z,1018.83
2023-01-07T01:33:01.102Z,1018.86
2023-01-07T01:34:01.109Z,1018.91
2023-01-07T01:35:01.225Z,1018.94
2023-01-07T01:36:01.257Z,1018.91
2023-01-07T01:37:01.186Z,1018.94
2023-01-07T01:38:01.181Z,1018.9
2023-01-07T01:39:01.159Z,1018.92
2023-01-07T01:40:01.183Z,1018.84
2023-01-07T01:41:01.077Z,1018.83
2023-01-07T01:42:01.060Z,1018.77
2023-01-07T01:43:01.469Z,1018.78
2023-01-07T01:44:01.865Z,1018.84
2023-01-07T01:45:01.097Z,1018.81
2023-01-07T01:46:01.967Z,1018.85
2023-01-07T01:47:01.990Z,1018.83
2023-01-07T01:48:01.101Z,1018.8
2023-01-07T01:49:01.057Z,1018.79
2023-01-07T01:50:01.140Z,1018.78
2023-01-07T01:51:01.125Z,1018.77
2023-01-07T01:52:01.512Z,1018.76
2023-01-07T01:53:01.132Z,1018.76
2023-01-07T01:54:01.186Z,1018.72
2023-01-07T01:55:01.107Z,1018.74
2023-01-07T01:56:01.155Z,1018.77
2023-01-07T01:57:01.156Z,1018.76
2023-01-07T01:58:01.070Z,1018.72
2023-01-07T01:59:01.071Z,1018.72
2023-01-07T02:00:01.380Z,1018.71
2023-01-07T02:01:01.505Z,1018.78
2023-01-07T02:02:01.255Z,1018.77
2023-01-07T02:03:01.089Z,1018.79
2023-01-07T02:04:01.050Z,1018.79
2023-01-07T02:05:01.100Z,1018.74
2023-01-07T02:06:01.116Z,1018.75
2023-01-07T02:07:01.189Z,1018.76
2023-01-07T02:08:01.152Z,1018.71
2023-01-07T02:09:01.267Z,1018.73
2023-01-07T02:10:01.476Z,1018.76
2023-01-07T02:11:01.165Z,1018.71
2023-01-07T02:12:01.159Z,1018.66
2023-01-07T02:13:01.154Z,1018.63
2023-01-07T02:14:01.053Z,1018.66
2023-01-07T02:15:01.090Z,1018.64
2023-01-07T02:16:00.965Z,1018.63
2023-01-07T02:17:00.874Z,1018.65
2023-01-07T02:18:01.446Z,1018.61
2023-01-07T02:19:01.152Z,1018.61
2023-01-07T02:20:02.412Z,1018.57
2023-01-07T02:21:02.158Z,1018.61
2023-01-07T02:22:01.047Z,1018.59
2023-01-07T02:23:01.115Z,1018.61
2023-01-07T02:24:01.199Z,1018.59
2023-01-07T02:25:01.165Z,1018.61
2023-01-07T02:26:01.465Z,1018.6
2023-01-07T02:27:01.179Z,1018.56
2023-01-07T02:28:01.140Z,1018.55
2023-01-07T02:29:01.388Z,1018.54
2023-01-07T02:30:01.159Z,1018.52
2023-01-07T02:31:01.062Z,1018.51
2023-01-07T02:32:01.075Z,1018.53
2023-01-07T02:33:01.346Z,1018.54
2023-01-07T02:34:02.097Z,1018.54
2023-01-07T02:35:01.240Z,1018.49
2023-01-07T02:36:01.942Z,1018.54
2023-01-07T02:37:00.903Z,1018.53
2023-01-07T02:38:00.590Z,1018.51
2023-01-07T02:39:00.872Z,1018.46
2023-01-07T02:40:00.492Z,1018.42
2023-01-07T02:41:00.393Z,1018.44
2023-01-07T02:42:01.543Z,1018.39
2023-01-07T02:43:04.198Z,1018.39
2023-01-07T02:44:01.230Z,1018.42
2023-01-07T02:45:01.237Z,1018.4
2023-01-07T02:46:01.256Z,1018.42
2023-01-07T02:47:04.332Z,1018.45
2023-01-07T02:48:01.184Z,1018.41
2023-01-07T02:49:01.072Z,1018.42
2023-01-07T02:50:01.412Z,1018.36
2023-01-07T02:51:01.442Z,1018.35
2023-01-07T02:52:06.963Z,1018.36
2023-01-07T02:53:02.456Z,1018.36
2023-01-07T02:54:01.112Z,1018.34
2023-01-07T02:55:01.223Z,1018.34
2023-01-07T02:56:01.125Z,1018.3
2023-01-07T02:57:10.146Z,1018.29
2023-01-07T02:58:02.337Z,1018.32
2023-01-07T02:59:01.855Z,1018.26
2023-01-07T03:00:04.149Z,1018.27
2023-01-07T03:01:02.247Z,1018.26
2023-01-07T03:02:14.702Z,1018.24
2023-01-07T03:03:01.160Z,1018.26
2023-01-07T03:04:01.945Z,1018.24
2023-01-07T03:05:03.888Z,1018.25
2023-01-07T03:06:02.194Z,1018.22
2023-01-07T03:07:00.644Z,1018.25
2023-01-07T03:08:00.287Z,1018.28
2023-01-07T03:08:59.858Z,1018.29
2023-01-07T03:10:01.579Z,1018.25
2023-01-07T03:11:01.120Z,1018.28
2023-01-07T03:12:01.130Z,1018.28
2023-01-07T03:13:01.518Z,1018.3
2023-01-07T03:14:01.049Z,1018.28
2023-01-07T03:15:01.184Z,1018.34
2023-01-07T03:16:01.151Z,1018.29
2023-01-07T03:17:01.153Z,1018.3
2023-01-07T03:18:00.839Z,1018.31
2023-01-07T03:19:00.421Z,1018.36
2023-01-07T03:20:00.190Z,1018.35
2023-01-07T03:20:59.826Z,1018.34
2023-01-07T03:22:02.024Z,1018.32
2023-01-07T03:23:01.902Z,1018.34
2023-01-07T03:24:01.251Z,1018.38
2023-01-07T03:25:01.107Z,1018.35
2023-01-07T03:26:01.112Z,1018.34
2023-01-07T03:27:01.107Z,1018.37
2023-01-07T03:28:01.164Z,1018.36
2023-01-07T03:29:01.716Z,1018.36
2023-01-07T03:30:01.654Z,1018.33
2023-01-07T03:31:01.996Z,1018.32
2023-01-07T03:32:01.677Z,1018.3
2023-01-07T03:33:01.140Z,1018.28
2023-01-07T03:34:01.167Z,1018.28
2023-01-07T03:35:01.206Z,1018.24
2023-01-07T03:36:01.126Z,1018.23
2023-01-07T03:37:01.073Z,1018.19
2023-01-07T03:38:01.450Z,1018.28
2023-01-07T03:39:01.057Z,1018.27
2023-01-07T03:40:00.771Z,1018.3
2023-01-07T03:41:00.492Z,1018.26
2023-01-07T03:42:00.184Z,1018.29
2023-01-07T03:42:59.969Z,1018.29
2023-01-07T03:43:59.617Z,1018.29
2023-01-07T03:45:01.521Z,1018.24
2023-01-07T03:46:02.827Z,1018.26
2023-01-07T03:47:01.152Z,1018.25
2023-01-07T03:48:01.158Z,1018.24
2023-01-07T03:49:00.734Z,1018.25
2023-01-07T03:50:00.364Z,1018.23
2023-01-07T03:50:59.956Z,1018.24
2023-01-07T03:51:59.519Z,1018.23
2023-01-07T03:53:02.210Z,1018.2
2023-01-07T03:54:02.577Z,1018.21
2023-01-07T03:55:01.258Z,1018.15
2023-01-07T03:56:02.565Z,1018.17
2023-01-07T03:57:01.116Z,1018.13
2023-01-07T03:58:01.104Z,1018.1
2023-01-07T03:59:01.078Z,1018.12
2023-01-07T04:00:01.195Z,1018.14
2023-01-07T04:01:01.270Z,1018.1
2023-01-07T04:02:01.308Z,1018.04
2023-01-07T04:03:02.142Z,1018.03
2023-01-07T04:04:03.490Z,1018.03
2023-01-07T04:05:01.294Z,1018.01
2023-01-07T04:06:01.155Z,1017.96
2023-01-07T04:07:01.155Z,1017.97
2023-01-07T04:08:01.061Z,1018.01
2023-01-07T04:09:01.068Z,1017.95
2023-01-07T04:10:01.443Z,1017.94
2023-01-07T04:11:01.095Z,1017.95
2023-01-07T04:12:01.094Z,1017.95
2023-01-07T04:13:01.104Z,1017.93
2023-01-07T04:14:01.131Z,1017.95
2023-01-07T04:15:01.136Z,1017.94
2023-01-07T04:16:01.219Z,1017.95
2023-01-07T04:17:01.689Z,1017.98
2023-01-07T04:18:01.664Z,1017.97
2023-01-07T04:19:02.036Z,1017.95
2023-01-07T04:20:01.849Z,1017.92
2023-01-07T04:21:01.053Z,1017.93
2023-01-07T04:22:01.149Z,1017.97
2023-01-07T04:23:05.611Z,1017.95
2023-01-07T04:24:00.885Z,1017.96
2023-01-07T04:25:00.556Z,1017.96
2023-01-07T04:26:00.158Z,1017.98
2023-01-07T04:26:59.837Z,1017.93
2023-01-07T04:28:09.179Z,1017.92
2023-01-07T04:29:01.500Z,1017.94
2023-01-07T04:30:01.361Z,1017.93
2023-01-07T04:31:01.413Z,1017.87
2023-01-07T04:32:01.501Z,1017.88
2023-01-07T04:33:11.756Z,1017.91
2023-01-07T04:34:01.281Z,1017.87
2023-01-07T04:35:04.051Z,1017.88
2023-01-07T04:36:01.185Z,1017.92
2023-01-07T04:37:02.185Z,1017.91
2023-01-07T04:38:15.949Z,1017.91
2023-01-07T04:39:03.884Z,1017.93
2023-01-07T04:40:01.068Z,1017.94
2023-01-07T04:41:01.078Z,1017.93
2023-01-07T04:42:00.869Z,1017.97
2023-01-07T04:43:01.718Z,1017.96
2023-01-07T04:44:01.956Z,1017.96
2023-01-07T04:45:01.958Z,1017.97
2023-01-07T04:46:02.207Z,1017.92
2023-01-07T04:47:01.123Z,1017.92
2023-01-07T04:48:01.178Z,1017.91
2023-01-07T04:49:01.119Z,1017.9
2023-01-07T04:50:01.526Z,1017.88
2023-01-07T04:51:01.148Z,1017.85
2023-01-07T04:52:01.144Z,1017.83
2023-01-07T04:53:01.149Z,1017.79
2023-01-07T04:54:01.152Z,1017.74
2023-01-07T04:55:01.152Z,1017.78
2023-01-07T04:56:01.076Z,1017.7
2023-01-07T04:57:01.073Z,1017.68
2023-01-07T04:58:01.093Z,1017.72
2023-01-07T04:59:01.475Z,1017.72
2023-01-07T05:00:01.113Z,1017.72
2023-01-07T05:01:01.296Z,1017.78
2023-01-07T05:02:02.241Z,1017.79
2023-01-07T05:03:01.114Z,1017.8
2023-01-07T05:04:00.823Z,1017.79
2023-01-07T05:05:00.758Z,1017.8
2023-01-07T05:06:00.352Z,1017.8
2023-01-07T05:06:59.998Z,1017.83
2023-01-07T05:07:59.698Z,1017.81
2023-01-07T05:09:01.873Z,1017.79
2023-01-07T05:10:02.718Z,1017.85
2023-01-07T05:11:01.229Z,1017.8
2023-01-07T05:12:01.076Z,1017.84
2023-01-07T05:13:01.090Z,1017.79
2023-01-07T05:14:01.133Z,1017.79
2023-01-07T05:15:01.526Z,1017.75
2023-01-07T05:16:01.207Z,1017.8
2023-01-07T05:17:02.002Z,1017.82
2023-01-07T05:18:02.769Z,1017.8
2023-01-07T05:19:00.798Z,1017.83
2023-01-07T05:20:00.414Z,1017.81
2023-01-07T05:21:00.097Z,1017.79
2023-01-07T05:22:01.007Z,1017.77
2023-01-07T05:23:01.126Z,1017.73
2023-01-07T05:24:01.557Z,1017.74
2023-01-07T05:25:01.160Z,1017.73
2023-01-07T05:26:01.153Z,1017.69
2023-01-07T05:27:01.152Z,1017.65
2023-01-07T05:28:01.054Z,1017.69
2023-01-07T05:29:01.061Z,1017.67
2023-01-07T05:30:01.082Z,1017.75
2023-01-07T05:31:01.218Z,1017.76
2023-01-07T05:32:01.411Z,1017.73
2023-01-07T05:33:01.505Z,1017.75
2023-01-07T05:34:01.932Z,1017.77
2023-01-07T05:35:01.094Z,1017.77
2023-01-07T05:36:01.140Z,1017.72
2023-01-07T05:37:01.115Z,1017.77
2023-01-07T05:38:01.114Z,1017.73
2023-01-07T05:39:01.065Z,1017.74
2023-01-07T05:40:01.531Z,1017.73
2023-01-07T05:41:01.182Z,1017.74
2023-01-07T05:42:01.169Z,1017.77
2023-01-07T05:43:01.166Z,1017.69
2023-01-07T05:44:01.872Z,1017.72
2023-01-07T05:45:01.986Z,1017.75
2023-01-07T05:46:01.236Z,1017.7
2023-01-07T05:47:01.415Z,1017.74
2023-01-07T05:48:01.469Z,1017.75
2023-01-07T05:49:02.610Z,1017.68
2023-01-07T05:50:01.143Z,1017.72
2023-01-07T05:51:01.551Z,1017.7
2023-01-07T05:52:01.194Z,1017.72
2023-01-07T05:53:01.869Z,1017.69
2023-01-07T05:54:05.343Z,1017.72
2023-01-07T05:55:01.529Z,1017.74
2023-01-07T05:56:01.215Z,1017.79
2023-01-07T05:57:01.135Z,1017.78
2023-01-07T05:58:01.148Z,1017.78
2023-01-07T05:59:08.698Z,1017.75
2023-01-07T06:00:01.787Z,1017.77
2023-01-07T06:01:01.442Z,1017.75
2023-01-07T06:02:01.124Z,1017.79
2023-01-07T06:03:01.072Z,1017.76
2023-01-07T06:04:10.799Z,1017.77
2023-01-07T06:05:01.655Z,1017.72
2023-01-07T06:06:01.082Z,1017.72
2023-01-07T06:07:01.154Z,1017.72
2023-01-07T06:08:01.119Z,1017.75
2023-01-07T06:09:14.411Z,1017.71
2023-01-07T06:10:02.782Z,1017.66
2023-01-07T06:11:02.047Z,1017.74
2023-01-07T06:12:01.345Z,1017.71
2023-01-07T06:13:01.151Z,1017.69
2023-01-07T06:14:16.688Z,1017.7
2023-01-07T06:15:00.837Z,1017.64
2023-01-07T06:16:00.798Z,1017.6
2023-01-07T06:17:01.067Z,1017.58
2023-01-07T06:18:01.085Z,1017.6
2023-01-07T06:19:02.026Z,1017.62
2023-01-07T06:20:01.317Z,1017.61
2023-01-07T06:21:01.638Z,1017.7
2023-01-07T06:22:01.932Z,1017.65
2023-01-07T06:23:01.817Z,1017.72
2023-01-07T06:24:01.215Z,1017.67
2023-01-07T06:25:01.911Z,1017.71
2023-01-07T06:26:01.162Z,1017.7
2023-01-07T06:27:01.700Z,1017.72
2023-01-07T06:28:01.227Z,1017.67
2023-01-07T06:29:01.051Z,1017.73
2023-01-07T06:30:01.551Z,1017.69
2023-01-07T06:31:00.849Z,1017.71
2023-01-07T06:32:01.310Z,1017.68
2023-01-07T06:33:01.055Z,1017.69
2023-01-07T06:34:01.174Z,1017.62
2023-01-07T06:35:01.068Z,1017.7
2023-01-07T06:36:01.089Z,1017.71
2023-01-07T06:37:01.087Z,1017.73
2023-01-07T06:38:01.096Z,1017.75
2023-01-07T06:39:01.102Z,1017.72
2023-01-07T06:40:00.996Z,1017.76
2023-01-07T06:41:01.224Z,1017.73
2023-01-07T06:42:01.532Z,1017.77
2023-01-07T06:43:01.130Z,1017.76
2023-01-07T06:44:00.955Z,1017.77
2023-01-07T06:45:01.247Z,1017.79
2023-01-07T06:46:01.548Z,1017.79
2023-01-07T06:47:01.584Z,1017.81
2023-01-07T06:48:01.546Z,1017.88
2023-01-07T06:49:02.274Z,1017.85
2023-01-07T06:50:01.905Z,1017.85
2023-01-07T06:51:01.879Z,1017.81
2023-01-07T06:52:01.501Z,1017.88
2023-01-07T06:53:00.605Z,1017.86
2023-01-07T06:54:00.462Z,1017.83
2023-01-07T06:55:00.102Z,1017.85
2023-01-07T06:55:59.774Z,1017.84
2023-01-07T06:57:02.336Z,1017.8
2023-01-07T06:58:01.127Z,1017.76
2023-01-07T06:59:01.052Z,1017.82
2023-01-07T07:00:01.077Z,1017.81
2023-01-07T07:01:01.517Z,1017.79
2023-01-07T07:02:01.853Z,1017.8
2023-01-07T07:03:01.482Z,1017.8
2023-01-07T07:04:01.252Z,1017.77
2023-01-07T07:05:00.950Z,1017.78
2023-01-07T07:06:01.063Z,1017.78
2023-01-07T07:07:01.080Z,1017.76
2023-01-07T07:08:01.102Z,1017.79
2023-01-07T07:09:00.797Z,1017.83
2023-01-07T07:10:00.471Z,1017.84
2023-01-07T07:11:00.172Z,1017.82
2023-01-07T07:11:59.969Z,1017.77
2023-01-07T07:12:59.781Z,1017.79
2023-01-07T07:14:01.513Z,1017.82
2023-01-07T07:15:01.118Z,1017.84
2023-01-07T07:16:01.190Z,1017.83
2023-01-07T07:17:01.144Z,1017.85
2023-01-07T07:18:01.185Z,1017.81
2023-01-07T07:19:01.151Z,1017.81
2023-01-07T07:20:01.328Z,1017.85
2023-01-07T07:21:01.541Z,1017.84
2023-01-07T07:22:03.226Z,1017.91
2023-01-07T07:23:01.718Z,1017.85
2023-01-07T07:24:00.825Z,1017.84
2023-01-07T07:25:00.464Z,1017.85
2023-01-07T07:26:00.058Z,1017.89
2023-01-07T07:26:59.748Z,1017.91
2023-01-07T07:28:01.487Z,1017.9
2023-01-07T07:29:01.059Z,1017.96
2023-01-07T07:30:03.405Z,1017.93
2023-01-07T07:31:01.183Z,1017.88
2023-01-07T07:32:01.134Z,1017.9
2023-01-07T07:33:01.139Z,1017.94
2023-01-07T07:34:01.295Z,1017.96
2023-01-07T07:35:06.328Z,1017.96
2023-01-07T07:36:02.485Z,1017.88
2023-01-07T07:37:01.170Z,1017.97
2023-01-07T07:38:01.090Z,1017.94
2023-01-07T07:39:01.071Z,1017.94
2023-01-07T07:40:09.231Z,1017.96
2023-01-07T07:41:01.878Z,1017.97
2023-01-07T07:42:01.257Z,1017.95
2023-01-07T07:43:10.666Z,1017.86
2023-01-07T07:44:01.053Z,1017.94
2023-01-07T07:45:12.212Z,1017.97
2023-01-07T07:46:02.406Z,1017.97
2023-01-07T07:47:01.749Z,1018.01
2023-01-07T07:48:02.165Z,1017.94
2023-01-07T07:49:01.441Z,1017.99
2023-01-07T07:50:15.016Z,1017.98
2023-01-07T07:51:02.467Z,1017.95
2023-01-07T07:52:01.528Z,1017.94
2023-01-07T07:53:02.155Z,1018
2023-01-07T07:54:01.161Z,1018.01
2023-01-07T07:55:20.250Z,1017.98
2023-01-07T07:56:01.079Z,1017.98
2023-01-07T07:57:01.047Z,1018.02
2023-01-07T07:58:01.103Z,1018
2023-01-07T07:59:04.341Z,1018.02
2023-01-07T08:00:01.092Z,1018.03
2023-01-07T08:01:01.557Z,1018
2023-01-07T08:02:01.191Z,1017.96
2023-01-07T08:03:01.467Z,1017.94
2023-01-07T08:04:01.168Z,1017.94
2023-01-07T08:05:01.950Z,1017.98
2023-01-07T08:06:01.429Z,1017.95
2023-01-07T08:07:01.154Z,1017.93
2023-01-07T08:08:01.180Z,1017.93
2023-01-07T08:09:01.172Z,1017.95
2023-01-07T08:10:01.202Z,1017.96
2023-01-07T08:11:01.065Z,1017.94
2023-01-07T08:12:01.100Z,1017.97
2023-01-07T08:13:01.092Z,1017.91
2023-01-07T08:14:01.811Z,1017.98
2023-01-07T08:15:01.056Z,1017.99
2023-01-07T08:16:01.119Z,1017.97
2023-01-07T08:17:01.112Z,1017.97
2023-01-07T08:18:01.228Z,1017.95
2023-01-07T08:19:01.124Z,1017.97
2023-01-07T08:20:01.856Z,1017.91
2023-01-07T08:21:01.124Z,1017.93
2023-01-07T08:22:01.145Z,1017.91
2023-01-07T08:23:01.399Z,1017.9
2023-01-07T08:24:01.231Z,1017.84
2023-01-07T08:25:01.186Z,1017.89
2023-01-07T08:26:01.169Z,1017.91
2023-01-07T08:27:01.883Z,1017.89
2023-01-07T08:28:01.058Z,1017.89
2023-01-07T08:29:00.631Z,1017.94
2023-01-07T08:30:00.478Z,1017.88
2023-01-07T08:31:00.235Z,1017.84
2023-01-07T08:31:59.921Z,1017.83
2023-01-07T08:32:59.662Z,1017.82
2023-01-07T08:34:01.807Z,1017.81
2023-01-07T08:35:01.418Z,1017.8
2023-01-07T08:36:02.496Z,1017.76
2023-01-07T08:37:01.235Z,1017.73
2023-01-07T08:38:01.258Z,1017.76
2023-01-07T08:39:01.235Z,1017.72
2023-01-07T08:40:01.931Z,1017.76
2023-01-07T08:41:02.596Z,1017.76
2023-01-07T08:42:01.164Z,1017.79
2023-01-07T08:43:01.180Z,1017.76
2023-01-07T08:44:01.116Z,1017.8
2023-01-07T08:45:01.076Z,1017.79
2023-01-07T08:46:01.816Z,1017.74
2023-01-07T08:47:01.961Z,1017.75
2023-01-07T08:48:02.026Z,1017.79
2023-01-07T08:49:00.757Z,1017.69
2023-01-07T08:50:00.432Z,1017.7
2023-01-07T08:51:00.226Z,1017.69
2023-01-07T08:51:59.900Z,1017.67
2023-01-07T08:52:59.587Z,1017.69
2023-01-07T08:54:01.731Z,1017.65
2023-01-07T08:55:01.167Z,1017.71
2023-01-07T08:56:01.143Z,1017.69
2023-01-07T08:57:01.166Z,1017.67
2023-01-07T08:58:01.971Z,1017.65
2023-01-07T08:59:01.272Z,1017.62
2023-01-07T09:00:01.180Z,1017.61
2023-01-07T09:01:02.051Z,1017.56
2023-01-07T09:02:02.340Z,1017.59
2023-01-07T09:03:01.237Z,1017.59
2023-01-07T09:04:01.034Z,1017.54
2023-01-07T09:05:01.150Z,1017.56
2023-01-07T09:06:01.182Z,1017.62
2023-01-07T09:07:01.109Z,1017.63
2023-01-07T09:08:01.227Z,1017.6
2023-01-07T09:09:01.112Z,1017.61
2023-01-07T09:10:01.123Z,1017.59
2023-01-07T09:11:02.104Z,1017.62
2023-01-07T09:12:01.537Z,1017.69
2023-01-07T09:13:01.562Z,1017.63
2023-01-07T09:14:01.284Z,1017.67
2023-01-07T09:15:02.257Z,1017.62
2023-01-07T09:16:02.014Z,1017.71
2023-01-07T09:17:01.785Z,1017.68
2023-01-07T09:18:01.080Z,1017.65
2023-01-07T09:19:01.131Z,1017.65
2023-01-07T09:20:01.754Z,1017.67
2023-01-07T09:21:01.492Z,1017.7
2023-01-07T09:22:01.112Z,1017.68
2023-01-07T09:23:01.558Z,1017.65
2023-01-07T09:24:00.813Z,1017.71
2023-01-07T09:25:00.507Z,1017.67
2023-01-07T09:26:04.335Z,1017.64
2023-01-07T09:27:01.131Z,1017.61
2023-01-07T09:28:01.182Z,1017.68
2023-01-07T09:29:01.799Z,1017.63
2023-01-07T09:30:01.464Z,1017.65
2023-01-07T09:31:05.571Z,1017.71
2023-01-07T09:31:59.527Z,1017.7
2023-01-07T09:33:01.228Z,1017.67
2023-01-07T09:34:01.239Z,1017.69
2023-01-07T09:35:02.315Z,1017.69
2023-01-07T09:36:07.613Z,1017.66
2023-01-07T09:37:01.129Z,1017.65
2023-01-07T09:38:01.099Z,1017.68
2023-01-07T09:39:01.123Z,1017.65
2023-01-07T09:40:01.263Z,1017.68
2023-01-07T09:41:10.455Z,1017.65
2023-01-07T09:42:01.608Z,1017.67
2023-01-07T09:43:02.267Z,1017.7
2023-01-07T09:44:02.236Z,1017.7
2023-01-07T09:45:01.228Z,1017.71
2023-01-07T09:46:13.907Z,1017.78
2023-01-07T09:47:05.015Z,1017.75
2023-01-07T09:48:01.187Z,1017.73
2023-01-07T09:49:01.108Z,1017.74
2023-01-07T09:50:01.102Z,1017.71
2023-01-07T09:51:16.099Z,1017.71
2023-01-07T09:52:01.496Z,1017.71
2023-01-07T09:53:01.203Z,1017.66
2023-01-07T09:54:01.136Z,1017.68
2023-01-07T09:55:01.267Z,1017.66
2023-01-07T09:56:17.545Z,1017.65
2023-01-07T09:57:01.448Z,1017.63
2023-01-07T09:58:02.138Z,1017.6
2023-01-07T09:59:01.086Z,1017.6
2023-01-07T10:00:01.547Z,1017.58
2023-01-07T10:01:01.608Z,1017.55
2023-01-07T10:01:59.616Z,1017.53
2023-01-07T10:03:01.402Z,1017.45
2023-01-07T10:04:02.271Z,1017.46
2023-01-07T10:05:01.067Z,1017.45
2023-01-07T10:06:01.109Z,1017.41
2023-01-07T10:07:01.109Z,1017.44
2023-01-07T10:08:30.968Z,1017.4
2023-01-07T10:09:01.806Z,1017.37
2023-01-07T10:10:01.053Z,1017.41
2023-01-07T10:11:01.148Z,1017.36
2023-01-07T10:12:01.868Z,1017.38
2023-01-07T10:13:01.879Z,1017.35
2023-01-07T10:14:01.124Z,1017.33
2023-01-07T10:15:01.053Z,1017.27
2023-01-07T10:16:04.008Z,1017.25
2023-01-07T10:17:01.431Z,1017.29
2023-01-07T10:18:01.161Z,1017.27
2023-01-07T10:19:01.079Z,1017.23
2023-01-07T10:20:01.056Z,1017.22
2023-01-07T10:21:01.072Z,1017.21
2023-01-07T10:22:01.103Z,1017.18
2023-01-07T10:23:01.093Z,1017.18
2023-01-07T10:24:01.260Z,1017.24
2023-01-07T10:25:01.720Z,1017.2
2023-01-07T10:26:01.183Z,1017.22
2023-01-07T10:27:01.124Z,1017.18
2023-01-07T10:28:01.701Z,1017.2
2023-01-07T10:29:01.136Z,1017.14
2023-01-07T10:30:01.128Z,1017.14
2023-01-07T10:31:01.960Z,1017.07
2023-01-07T10:32:01.769Z,1017.06
2023-01-07T10:33:01.167Z,1017.02
2023-01-07T10:34:01.257Z,1017.02
2023-01-07T10:35:01.377Z,1017.02
2023-01-07T10:36:01.549Z,1017.02
2023-01-07T10:37:02.159Z,1017.01
2023-01-07T10:38:01.066Z,1017.02
2023-01-07T10:39:01.080Z,1016.98
2023-01-07T10:40:01.081Z,1016.99
2023-01-07T10:41:01.048Z,1016.98
2023-01-07T10:42:01.487Z,1016.99
2023-01-07T10:43:01.065Z,1016.98
2023-01-07T10:44:00.791Z,1016.96
2023-01-07T10:45:00.416Z,1016.99
2023-01-07T10:46:00.198Z,1016.93
2023-01-07T10:46:59.907Z,1016.91
2023-01-07T10:47:59.711Z,1016.91
2023-01-07T10:49:01.340Z,1016.93
2023-01-07T10:50:02.597Z,1016.92
2023-01-07T10:51:01.967Z,1016.88
2023-01-07T10:52:01.071Z,1016.86
2023-01-07T10:53:01.082Z,1016.84
2023-01-07T10:54:01.890Z,1016.8
2023-01-07T10:55:03.920Z,1016.86
2023-01-07T10:56:01.195Z,1016.79
2023-01-07T10:57:01.096Z,1016.8
2023-01-07T10:58:02.105Z,1016.78
2023-01-07T10:59:02.107Z,1016.84
2023-01-07T11:00:01.152Z,1016.82
2023-01-07T11:01:01.343Z,1016.8
2023-01-07T11:01:59.821Z,1017.18
2023-01-07T11:02:59.739Z,1016.8
2023-01-07T11:04:01.543Z,1016.8
2023-01-07T11:05:01.158Z,1016.79
2023-01-07T11:06:01.153Z,1016.8
2023-01-07T11:07:01.192Z,1016.8
2023-01-07T11:08:01.727Z,1016.79
2023-01-07T11:09:01.060Z,1016.77
2023-01-07T11:10:01.069Z,1016.76
2023-01-07T11:11:01.104Z,1016.73
2023-01-07T11:12:04.642Z,1016.71
2023-01-07T11:13:01.104Z,1016.69
2023-01-07T11:14:01.807Z,1016.7
2023-01-07T11:15:02.526Z,1016.67
2023-01-07T11:16:04.514Z,1016.7
2023-01-07T11:17:06.512Z,1016.62
2023-01-07T11:18:01.231Z,1016.61
2023-01-07T11:19:02.059Z,1016.56
2023-01-07T11:20:01.139Z,1016.56
2023-01-07T11:21:01.157Z,1016.53
2023-01-07T11:22:09.097Z,1016.53
2023-01-07T11:23:01.819Z,1016.55
2023-01-07T11:24:01.460Z,1016.49
2023-01-07T11:25:01.097Z,1016.48
2023-01-07T11:26:01.082Z,1016.51
2023-01-07T11:27:11.075Z,1016.52
2023-01-07T11:28:01.786Z,1016.48
2023-01-07T11:29:01.191Z,1016.49
2023-01-07T11:30:01.825Z,1016.43
2023-01-07T11:31:02.162Z,1016.46
2023-01-07T11:32:13.703Z,1016.48
2023-01-07T11:33:01.829Z,1016.47
2023-01-07T11:34:04.446Z,1016.44
2023-01-07T11:35:01.874Z,1016.45
2023-01-07T11:36:01.494Z,1016.39
2023-01-07T11:37:15.615Z,1016.38
2023-01-07T11:38:02.292Z,1016.42
2023-01-07T11:39:01.754Z,1016.38
2023-01-07T11:40:01.164Z,1016.39
2023-01-07T11:41:02.436Z,1016.41
2023-01-07T11:42:01.482Z,1016.41
2023-01-07T11:43:01.135Z,1016.43
2023-01-07T11:44:00.880Z,1016.41
2023-01-07T11:45:00.626Z,1016.44
2023-01-07T11:46:21.277Z,1016.4
2023-01-07T11:47:01.433Z,1016.43
2023-01-07T11:48:01.100Z,1016.38
2023-01-07T11:49:01.470Z,1016.38
2023-01-07T11:50:01.182Z,1016.42
2023-01-07T11:51:01.148Z,1016.42
2023-01-07T11:52:01.132Z,1016.39
2023-01-07T11:53:01.800Z,1016.38
2023-01-07T11:54:01.062Z,1016.39
2023-01-07T11:55:01.084Z,1016.38
2023-01-07T11:56:01.316Z,1016.37
2023-01-07T11:57:01.359Z,1016.29
2023-01-07T11:58:29.602Z,1016.31
2023-01-07T11:59:08.097Z,1016.26
2023-01-07T12:00:01.071Z,1016.27
2023-01-07T12:01:01.210Z,1016.3
2023-01-07T12:02:01.216Z,1016.26
2023-01-07T12:03:02.517Z,1016.24
2023-01-07T12:04:00.906Z,1016.24
2023-01-07T12:05:01.196Z,1016.26
2023-01-07T12:06:02.065Z,1016.27
2023-01-07T12:07:01.649Z,1016.22
2023-01-07T12:08:01.129Z,1016.21